createdAt,value
2018-07-13T00:01:44.967Z,99.90
2018-07-13T00:04:11.896Z,99.90
2018-07-13T00:06:38.824Z,99.90
2018-07-13T00:09:05.785Z,99.90
2018-07-13T00:11:32.665Z,99.90
2018-07-13T00:13:59.673Z,99.90
2018-07-13T00:16:26.528Z,99.90
2018-07-13T00:18:53.685Z,99.90
2018-07-13T00:21:20.556Z,99.90
2018-07-13T00:23:47.469Z,99.90
2018-07-13T00:26:14.327Z,99.90
2018-07-13T00:28:41.329Z,99.90
2018-07-13T00:31:08.249Z,99.90
2018-07-13T00:33:35.170Z,99.90
2018-07-13T00:36:02.032Z,99.90
2018-07-13T00:38:28.951Z,99.90
2018-07-13T00:40:55.803Z,99.90
2018-07-13T00:43:22.711Z,99.90
2018-07-13T00:45:49.564Z,99.90
2018-07-13T00:48:16.473Z,99.90
2018-07-13T00:50:43.327Z,99.90
2018-07-13T00:53:10.236Z,99.90
2018-07-13T00:55:37.093Z,99.90
2018-07-13T00:58:04.021Z,99.90
2018-07-13T01:00:30.933Z,99.90
2018-07-13T01:02:57.906Z,99.90
2018-07-13T01:05:24.762Z,99.90
2018-07-13T01:07:51.669Z,99.90
2018-07-13T01:10:18.541Z,99.90
2018-07-13T01:12:45.445Z,99.90
2018-07-13T01:15:12.306Z,99.90
2018-07-13T01:17:39.217Z,99.90
2018-07-13T01:20:06.256Z,99.90
2018-07-13T01:22:33.161Z,99.90
2018-07-13T01:25:00.011Z,99.90
2018-07-13T01:27:26.992Z,99.90
2018-07-13T01:29:53.892Z,99.90
2018-07-13T01:32:20.844Z,99.90
2018-07-13T01:34:47.686Z,99.90
2018-07-13T01:37:14.549Z,99.90
2018-07-13T01:39:41.453Z,99.90
2018-07-13T01:42:08.297Z,99.90
2018-07-13T01:44:35.198Z,99.90
2018-07-13T01:47:02.046Z,99.90
2018-07-13T01:49:28.941Z,99.90
2018-07-13T01:51:55.798Z,99.90
2018-07-13T01:54:22.703Z,99.90
2018-07-13T01:56:49.549Z,99.90
2018-07-13T01:59:16.468Z,99.90
2018-07-13T02:01:43.319Z,99.90
2018-07-13T02:04:10.216Z,99.90
2018-07-13T02:06:37.068Z,99.90
2018-07-13T02:09:04.069Z,99.90
2018-07-13T02:11:30.908Z,99.90
2018-07-13T02:13:57.872Z,99.90
2018-07-13T02:16:24.703Z,99.90
2018-07-13T02:18:51.609Z,99.90
2018-07-13T02:21:18.453Z,99.90
2018-07-13T02:23:45.365Z,99.90
2018-07-13T02:26:12.219Z,99.90
2018-07-13T02:28:39.189Z,99.90
2018-07-13T02:31:06.043Z,99.90
2018-07-13T02:33:32.970Z,99.90
2018-07-13T02:35:59.836Z,99.90
2018-07-13T02:38:26.754Z,99.90
2018-07-13T02:40:53.609Z,99.90
2018-07-13T02:43:20.509Z,99.90
2018-07-13T02:45:47.353Z,99.90
2018-07-13T02:48:14.250Z,99.90
2018-07-13T02:50:41.101Z,99.90
2018-07-13T02:53:07.937Z,99.90
2018-07-13T02:55:34.885Z,99.90
2018-07-13T02:58:01.741Z,99.90
2018-07-13T03:00:28.666Z,99.90
2018-07-13T03:02:55.506Z,99.90
2018-07-13T03:05:22.418Z,99.90
2018-07-13T03:07:49.497Z,99.90
2018-07-13T03:10:16.405Z,99.90
2018-07-13T03:12:43.252Z,99.90
2018-07-13T03:15:10.149Z,99.90
2018-07-13T03:17:36.990Z,99.90
2018-07-13T03:20:03.937Z,99.90
2018-07-13T03:22:30.905Z,99.90
2018-07-13T03:24:57.812Z,99.90
2018-07-13T03:27:24.682Z,99.90
2018-07-13T03:29:51.669Z,99.90
2018-07-13T03:32:18.511Z,99.90
2018-07-13T03:34:45.408Z,99.90
2018-07-13T03:37:12.274Z,99.90
2018-07-13T03:39:39.251Z,99.90
2018-07-13T03:42:06.118Z,99.90
2018-07-13T03:44:33.019Z,99.90
2018-07-13T03:46:59.870Z,99.90
2018-07-13T03:49:26.787Z,99.90
2018-07-13T03:51:53.644Z,99.90
2018-07-13T03:54:20.573Z,99.90
2018-07-13T03:56:47.455Z,99.90
2018-07-13T03:59:14.380Z,99.90
2018-07-13T04:01:41.248Z,99.90
2018-07-13T04:04:08.165Z,99.90
2018-07-13T04:06:35.133Z,99.90
2018-07-13T04:09:01.984Z,99.90
2018-07-13T04:11:28.909Z,99.90
2018-07-13T04:13:55.757Z,99.90
2018-07-13T04:16:22.717Z,99.90
2018-07-13T04:18:49.591Z,99.90
2018-07-13T04:21:16.540Z,99.90
2018-07-13T04:23:43.423Z,99.90
2018-07-13T04:26:13.164Z,99.90
2018-07-13T04:28:54.807Z,99.90
2018-07-13T04:31:22.660Z,99.90
2018-07-13T04:33:49.523Z,99.90
2018-07-13T04:36:16.423Z,99.90
2018-07-13T04:38:43.360Z,99.90
2018-07-13T04:41:10.373Z,99.90
2018-07-13T04:43:37.213Z,99.90
2018-07-13T04:46:04.212Z,99.90
2018-07-13T04:48:31.188Z,99.90
2018-07-13T04:50:58.258Z,99.90
2018-07-13T04:53:25.212Z,99.90
2018-07-13T04:55:52.220Z,99.90
2018-07-13T04:58:19.160Z,99.90
2018-07-13T05:00:46.164Z,99.90
2018-07-13T05:03:13.121Z,99.90
2018-07-13T05:05:40.192Z,99.90
2018-07-13T05:08:08.326Z,99.90
2018-07-13T05:10:35.260Z,99.90
2018-07-13T05:13:02.211Z,99.90
2018-07-13T05:15:29.168Z,99.90
2018-07-13T05:17:56.053Z,99.90
2018-07-13T05:20:23.055Z,99.90
2018-07-13T05:22:50.008Z,99.90
2018-07-13T05:25:17.018Z,99.90
2018-07-13T05:27:43.985Z,99.40
2018-07-13T05:30:11.024Z,98.60
2018-07-13T05:32:37.973Z,99.90
2018-07-13T05:35:04.977Z,99.90
2018-07-13T05:37:31.955Z,99.90
2018-07-13T05:39:58.918Z,99.90
2018-07-13T05:42:25.933Z,99.90
2018-07-13T05:44:52.889Z,99.90
2018-07-13T05:47:19.916Z,99.90
2018-07-13T05:49:46.967Z,99.90
2018-07-13T05:52:13.967Z,99.90
2018-07-13T05:54:40.996Z,99.90
2018-07-13T05:57:08.045Z,99.90
2018-07-13T05:59:35.030Z,99.90
2018-07-13T06:02:02.009Z,99.90
2018-07-13T06:04:29.045Z,99.90
2018-07-13T06:06:56.057Z,99.90
2018-07-13T06:09:22.994Z,99.90
2018-07-13T06:11:49.995Z,99.90
2018-07-13T06:14:16.869Z,99.90
2018-07-13T06:16:43.798Z,99.90
2018-07-13T06:19:10.741Z,99.90
2018-07-13T06:21:37.669Z,99.90
2018-07-13T06:24:04.624Z,99.90
2018-07-13T06:26:31.524Z,99.90
2018-07-13T06:28:58.417Z,99.90
2018-07-13T06:31:25.445Z,99.90
2018-07-13T06:33:52.296Z,99.90
2018-07-13T06:36:19.347Z,99.90
2018-07-13T06:38:46.258Z,99.90
2018-07-13T06:41:13.236Z,99.90
2018-07-13T06:43:40.176Z,99.90
2018-07-13T06:46:07.161Z,99.90
2018-07-13T06:48:34.071Z,99.90
2018-07-13T06:51:01.077Z,99.90
2018-07-13T06:53:28.005Z,99.90
2018-07-13T06:55:54.866Z,99.90
2018-07-13T06:58:44.482Z,99.90
2018-07-13T07:01:11.457Z,99.90
2018-07-13T07:03:38.498Z,99.90
2018-07-13T07:06:05.485Z,99.90
2018-07-13T07:08:33.276Z,99.90
2018-07-13T07:11:00.426Z,99.90
2018-07-13T07:13:27.441Z,99.90
2018-07-13T07:15:54.366Z,99.90
2018-07-13T07:18:21.317Z,99.90
2018-07-13T07:20:48.207Z,99.90
2018-07-13T07:23:15.135Z,99.90
2018-07-13T07:25:42.054Z,99.90
2018-07-13T07:28:08.981Z,99.90
2018-07-13T07:30:35.973Z,99.90
2018-07-13T07:33:02.928Z,99.90
2018-07-13T07:35:29.806Z,99.90
2018-07-13T07:37:56.765Z,99.90
2018-07-13T07:40:23.644Z,99.90
2018-07-13T07:42:50.649Z,99.90
2018-07-13T07:45:17.590Z,99.90
2018-07-13T07:47:44.617Z,99.90
2018-07-13T07:50:11.555Z,99.90
2018-07-13T07:52:38.482Z,99.90
2018-07-13T07:55:05.378Z,99.90
2018-07-13T07:57:32.367Z,99.90
2018-07-13T07:59:59.238Z,99.90
2018-07-13T08:02:41.131Z,99.90
2018-07-13T08:05:08.949Z,99.80
2018-07-13T08:07:46.553Z,99.90
2018-07-13T08:10:13.445Z,99.90
2018-07-13T08:12:40.411Z,99.90
2018-07-13T08:15:11.921Z,99.90
2018-07-13T08:17:40.846Z,99.00
2018-07-13T08:20:07.766Z,97.40
2018-07-13T08:22:42.334Z,97.40
2018-07-13T08:25:20.039Z,98.30
2018-07-13T08:27:48.056Z,95.50
2018-07-13T08:33:11.712Z,93.60
2018-07-13T08:38:37.754Z,90.10
2018-07-13T08:41:18.538Z,89.10
2018-07-13T08:43:46.494Z,90.90
2018-07-13T08:46:13.429Z,90.00
2018-07-13T08:48:40.370Z,85.60
2018-07-13T08:51:07.317Z,86.60
2018-07-13T08:53:34.303Z,86.70
2018-07-13T08:56:08.380Z,82.70
2018-07-13T08:58:37.385Z,81.80
2018-07-13T09:01:14.601Z,80.90
2018-07-13T09:03:49.217Z,77.20
2018-07-13T09:06:30.131Z,77.00
2018-07-13T09:11:55.089Z,77.40
2018-07-13T09:14:35.252Z,77.10
2018-07-13T09:17:02.787Z,75.80
2018-07-13T09:19:44.577Z,76.50
2018-07-13T09:22:26.259Z,72.10
2018-07-13T09:25:07.094Z,76.40
2018-07-13T09:27:48.689Z,73.80
2018-07-13T09:30:24.170Z,74.20
2018-07-13T09:33:00.351Z,73.50
2018-07-13T09:35:27.609Z,71.50
2018-07-13T09:37:54.709Z,72.90
2018-07-13T09:40:21.602Z,72.20
2018-07-13T09:42:48.559Z,72.30
2018-07-13T09:45:15.448Z,71.10
2018-07-13T09:47:42.370Z,73.30
2018-07-13T09:50:09.238Z,66.90
2018-07-13T09:52:36.161Z,65.00
2018-07-13T09:55:03.166Z,67.60
2018-07-13T09:57:30.085Z,70.80
2018-07-13T09:59:56.995Z,70.10
2018-07-13T10:02:23.941Z,72.30
2018-07-13T10:04:51.020Z,71.20
2018-07-13T10:07:17.936Z,69.50
2018-07-13T10:09:44.925Z,68.60
2018-07-13T10:12:11.881Z,66.70
2018-07-13T10:14:38.899Z,70.20
2018-07-13T10:17:05.872Z,64.90
2018-07-13T10:19:32.893Z,68.50
2018-07-13T10:21:59.834Z,69.40
2018-07-13T10:24:28.398Z,67.80
2018-07-13T10:26:57.022Z,68.50
2018-07-13T10:29:24.184Z,71.20
2018-07-13T10:31:51.143Z,71.20
2018-07-13T10:34:20.558Z,70.90
2018-07-13T10:36:50.445Z,71.90
2018-07-13T10:39:19.564Z,72.10
2018-07-13T10:41:48.674Z,70.80
2018-07-13T10:44:15.812Z,72.10
2018-07-13T10:46:44.529Z,72.40
2018-07-13T10:49:13.217Z,71.20
2018-07-13T10:51:40.235Z,70.50
2018-07-13T10:54:13.373Z,69.10
2018-07-13T10:56:49.298Z,66.70
2018-07-13T10:59:25.107Z,69.30
2018-07-13T11:01:59.680Z,66.70
2018-07-13T11:04:30.352Z,67.70
2018-07-13T11:07:04.642Z,69.30
2018-07-13T11:09:31.564Z,69.80
2018-07-13T11:11:58.477Z,71.60
2018-07-13T11:14:25.412Z,70.80
2018-07-13T11:16:52.268Z,68.50
2018-07-13T11:19:30.635Z,66.30
2018-07-13T11:22:05.735Z,66.90
2018-07-13T11:24:42.284Z,66.50
2018-07-13T11:27:23.267Z,64.40
2018-07-13T11:30:02.368Z,65.60
2018-07-13T11:32:30.977Z,65.30
2018-07-13T11:34:57.902Z,62.20
2018-07-13T11:37:26.849Z,61.00
2018-07-13T11:40:03.456Z,63.20
2018-07-13T11:45:26.361Z,65.40
2018-07-13T11:48:07.313Z,65.10
2018-07-13T11:53:27.401Z,61.20
2018-07-13T11:56:03.542Z,63.20
2018-07-13T11:58:45.522Z,62.40
2018-07-13T12:01:26.914Z,57.80
2018-07-13T12:04:04.408Z,58.70
2018-07-13T12:06:44.702Z,58.90
2018-07-13T12:09:27.137Z,58.10
2018-07-13T12:12:06.126Z,57.60
2018-07-13T12:14:46.561Z,58.90
2018-07-13T12:20:02.403Z,58.10
2018-07-13T12:22:39.555Z,57.20
2018-07-13T12:25:18.287Z,55.90
2018-07-13T12:27:49.289Z,56.30
2018-07-13T12:30:16.542Z,56.20
2018-07-13T12:32:45.354Z,54.70
2018-07-13T12:35:12.309Z,58.30
2018-07-13T12:37:39.184Z,56.30
2018-07-13T12:40:06.997Z,56.50
2018-07-13T12:42:34.573Z,57.30
2018-07-13T12:45:01.634Z,57.60
2018-07-13T12:47:28.598Z,58.00
2018-07-13T12:50:02.286Z,56.80
2018-07-13T12:52:34.788Z,56.50
2018-07-13T12:55:12.802Z,57.70
2018-07-13T12:57:42.153Z,55.10
2018-07-13T13:00:09.246Z,55.50
2018-07-13T13:02:36.881Z,53.50
2018-07-13T13:05:04.677Z,55.70
2018-07-13T13:07:32.160Z,56.60
2018-07-13T13:10:00.339Z,55.00
2018-07-13T13:12:27.258Z,55.50
2018-07-13T13:14:57.369Z,55.00
2018-07-13T13:17:24.273Z,55.90
2018-07-13T13:19:51.137Z,59.30
2018-07-13T13:22:18.084Z,59.50
2018-07-13T13:24:49.548Z,58.50
2018-07-13T13:27:21.576Z,58.40
2018-07-13T13:29:48.424Z,59.20
2018-07-13T13:32:19.797Z,61.20
2018-07-13T13:34:46.848Z,59.30
2018-07-13T13:37:13.750Z,59.60
2018-07-13T13:39:40.672Z,60.30
2018-07-13T13:42:15.567Z,59.70
2018-07-13T13:44:44.818Z,61.40
2018-07-13T13:47:11.939Z,59.20
2018-07-13T13:49:38.838Z,62.50
2018-07-13T13:52:05.953Z,59.20
2018-07-13T13:54:32.808Z,60.30
2018-07-13T13:56:59.756Z,61.30
2018-07-13T13:59:26.601Z,61.50
2018-07-13T14:01:53.657Z,62.50
2018-07-13T14:04:20.646Z,63.60
2018-07-13T14:07:03.334Z,62.80
2018-07-13T14:09:44.704Z,62.50
2018-07-13T14:15:07.191Z,61.40
2018-07-13T14:17:49.002Z,61.70
2018-07-13T14:20:30.437Z,62.30
2018-07-13T14:22:58.197Z,61.00
2018-07-13T14:25:25.055Z,61.20
2018-07-13T14:27:51.989Z,61.20
2018-07-13T14:30:18.849Z,60.00
2018-07-13T14:33:00.447Z,61.00
2018-07-13T14:35:28.057Z,60.20
2018-07-13T14:37:54.965Z,58.40
2018-07-13T14:40:21.861Z,60.90
2018-07-13T14:42:48.780Z,59.90
2018-07-13T14:45:19.161Z,62.60
2018-07-13T14:47:53.794Z,63.00
2018-07-13T14:50:35.845Z,61.70
2018-07-13T14:55:48.540Z,61.10
2018-07-13T14:58:23.050Z,60.50
2018-07-13T15:01:02.167Z,59.40
2018-07-13T15:06:22.248Z,63.20
2018-07-13T15:08:50.142Z,64.40
2018-07-13T15:11:16.993Z,65.30
2018-07-13T15:13:43.936Z,65.70
2018-07-13T15:16:11.447Z,65.90
2018-07-13T15:18:38.457Z,66.50
2018-07-13T15:21:05.801Z,66.70
2018-07-13T15:23:32.737Z,66.70
2018-07-13T15:26:10.263Z,67.00
2018-07-13T15:28:38.142Z,67.60
2018-07-13T15:31:06.017Z,68.10
2018-07-13T15:33:32.949Z,68.80
2018-07-13T15:35:59.807Z,68.80
2018-07-13T15:38:27.199Z,68.90
2018-07-13T15:40:54.096Z,69.30
2018-07-13T15:43:21.062Z,69.30
2018-07-13T15:45:50.025Z,70.30
2018-07-13T15:48:24.993Z,69.90
2018-07-13T15:50:58.125Z,70.40
2018-07-13T15:53:29.879Z,70.90
2018-07-13T15:55:57.227Z,70.40
2018-07-13T15:58:24.187Z,70.20
2018-07-13T16:00:51.085Z,70.90
2018-07-13T16:03:18.004Z,70.90
2018-07-13T16:05:44.983Z,70.80
2018-07-13T16:08:18.955Z,70.00
2018-07-13T16:10:46.893Z,69.70
2018-07-13T16:13:19.234Z,70.10
2018-07-13T16:15:47.506Z,68.10
2018-07-13T16:18:14.444Z,68.10
2018-07-13T16:20:44.130Z,67.10
2018-07-13T16:23:15.251Z,65.90
2018-07-13T16:25:44.354Z,66.60
2018-07-13T16:28:11.280Z,66.00
2018-07-13T16:30:43.308Z,64.90
2018-07-13T16:33:14.099Z,65.80
2018-07-13T16:35:40.964Z,65.40
2018-07-13T16:38:09.057Z,66.00
2018-07-13T16:40:39.236Z,66.30
2018-07-13T16:43:06.169Z,67.00
2018-07-13T16:45:36.210Z,66.80
2018-07-13T16:48:03.400Z,67.60
2018-07-13T16:50:30.350Z,64.90
2018-07-13T16:52:57.180Z,66.10
2018-07-13T16:55:24.101Z,67.70
2018-07-13T16:57:50.952Z,68.00
2018-07-13T17:00:17.879Z,66.40
2018-07-13T17:02:50.749Z,66.00
2018-07-13T17:05:17.720Z,66.30
2018-07-13T17:07:45.306Z,65.70
2018-07-13T17:10:12.235Z,65.40
2018-07-13T17:12:40.543Z,66.90
2018-07-13T17:15:10.056Z,66.40
2018-07-13T17:17:36.985Z,65.80
2018-07-13T17:20:04.085Z,65.80
2018-07-13T17:22:30.967Z,65.70
2018-07-13T17:24:58.105Z,65.40
2018-07-13T17:27:24.949Z,65.70
2018-07-13T17:29:52.064Z,65.70
2018-07-13T17:32:27.835Z,66.40
2018-07-13T17:34:54.848Z,66.90
2018-07-13T17:37:25.466Z,66.60
2018-07-13T17:39:52.616Z,66.10
2018-07-13T17:42:26.153Z,65.40
2018-07-13T17:44:57.034Z,66.10
2018-07-13T17:47:23.949Z,65.70
2018-07-13T17:50:00.179Z,65.50
2018-07-13T17:52:31.484Z,65.80
2018-07-13T17:54:59.568Z,66.50
2018-07-13T17:57:26.472Z,66.80
2018-07-13T17:59:53.461Z,67.50
2018-07-13T18:02:24.646Z,66.70
2018-07-13T18:04:51.934Z,66.40
2018-07-13T18:07:18.962Z,67.10
2018-07-13T18:09:48.481Z,67.20
2018-07-13T18:12:20.846Z,67.40
2018-07-13T18:14:56.371Z,66.90
2018-07-13T18:17:28.878Z,66.70
2018-07-13T18:20:03.178Z,67.60
2018-07-13T18:22:31.747Z,67.80
2018-07-13T18:25:02.254Z,69.00
2018-07-13T18:27:31.114Z,68.30
2018-07-13T18:29:58.023Z,68.40
2018-07-13T18:32:25.184Z,68.90
2018-07-13T18:34:52.104Z,69.30
2018-07-13T18:37:19.022Z,68.90
2018-07-13T18:39:56.491Z,69.30
2018-07-13T18:42:29.642Z,69.40
2018-07-13T18:45:01.048Z,70.20
2018-07-13T18:47:28.669Z,70.30
2018-07-13T18:49:59.283Z,70.60
2018-07-13T18:52:30.971Z,71.00
2018-07-13T18:54:58.534Z,71.30
2018-07-13T18:57:25.430Z,71.70
2018-07-13T18:59:52.380Z,72.10
2018-07-13T19:02:19.296Z,72.50
2018-07-13T19:04:46.178Z,72.40
2018-07-13T19:07:13.198Z,74.00
2018-07-13T19:09:40.064Z,73.50
2018-07-13T19:12:07.046Z,73.50
2018-07-13T19:14:33.913Z,73.90
2018-07-13T19:17:00.841Z,74.40
2018-07-13T19:19:27.704Z,75.10
2018-07-13T19:21:54.643Z,74.80
2018-07-13T19:24:21.508Z,75.20
2018-07-13T19:26:48.440Z,75.10
2018-07-13T19:29:15.356Z,76.30
2018-07-13T19:31:42.293Z,77.70
2018-07-13T19:34:09.197Z,80.40
2018-07-13T19:36:36.122Z,82.50
2018-07-13T19:39:03.130Z,84.50
2018-07-13T19:41:30.108Z,85.10
2018-07-13T19:43:56.957Z,86.60
2018-07-13T19:46:23.877Z,89.10
2018-07-13T19:48:50.792Z,90.40
2018-07-13T19:51:17.750Z,90.40
2018-07-13T19:53:44.700Z,91.20
2018-07-13T19:56:11.679Z,92.50
2018-07-13T19:58:38.528Z,91.90
2018-07-13T20:01:05.967Z,93.40
2018-07-13T20:03:32.966Z,92.90
2018-07-13T20:05:59.984Z,93.00
2018-07-13T20:08:26.904Z,94.40
2018-07-13T20:10:53.825Z,95.20
2018-07-13T20:13:20.717Z,94.60
2018-07-13T20:15:47.621Z,95.80
2018-07-13T20:18:14.585Z,95.60
2018-07-13T20:20:41.449Z,95.60
2018-07-13T20:23:08.453Z,96.10
2018-07-13T20:25:35.381Z,96.70
2018-07-13T20:28:02.310Z,97.80
2018-07-13T20:30:29.259Z,98.20
2018-07-13T20:32:56.185Z,98.60
2018-07-13T20:35:23.064Z,99.30
2018-07-13T20:37:49.992Z,98.20
2018-07-13T20:40:16.906Z,97.80
2018-07-13T20:42:43.882Z,99.10
2018-07-13T20:45:10.850Z,99.60
2018-07-13T20:47:37.799Z,99.60
2018-07-13T20:50:04.971Z,99.20
2018-07-13T20:52:32.018Z,99.50
2018-07-13T20:54:58.933Z,99.90
2018-07-13T20:57:25.852Z,99.90
2018-07-13T20:59:52.721Z,99.90
2018-07-13T21:02:19.630Z,99.90
2018-07-13T21:04:46.581Z,99.90
2018-07-13T21:07:13.565Z,99.90
2018-07-13T21:09:40.437Z,99.90
2018-07-13T21:12:07.388Z,99.90
2018-07-13T21:14:34.239Z,99.90
2018-07-13T21:17:01.194Z,99.90
2018-07-13T21:19:28.118Z,99.90
2018-07-13T21:21:55.253Z,99.90
2018-07-13T21:24:22.193Z,99.90
2018-07-13T21:27:02.161Z,99.90
2018-07-13T21:29:44.145Z,99.90
2018-07-13T21:32:26.592Z,99.90
2018-07-13T21:34:59.488Z,99.90
2018-07-13T21:37:37.711Z,99.90
2018-07-13T21:40:17.281Z,99.90
2018-07-13T21:42:55.132Z,99.90
2018-07-13T21:45:23.398Z,99.90
2018-07-13T21:47:50.262Z,99.90
2018-07-13T21:50:27.925Z,99.90
2018-07-13T21:53:08.786Z,99.90
2018-07-13T21:55:49.549Z,99.90
2018-07-13T21:58:31.287Z,99.90
2018-07-13T22:00:59.090Z,99.90
2018-07-13T22:03:26.001Z,99.90
2018-07-13T22:08:51.283Z,99.90
2018-07-13T22:11:19.270Z,99.90
2018-07-13T22:13:46.200Z,99.90
2018-07-13T22:16:24.829Z,99.90
2018-07-13T22:19:05.097Z,99.90
2018-07-13T22:21:32.749Z,99.90
2018-07-13T22:24:00.820Z,99.90
2018-07-13T22:26:41.711Z,99.90
2018-07-13T22:29:24.421Z,99.90
2018-07-13T22:31:52.191Z,99.90
2018-07-13T22:34:22.571Z,99.90
2018-07-13T22:36:49.794Z,99.90
2018-07-13T22:39:31.332Z,99.90
2018-07-13T22:41:59.309Z,99.90
2018-07-13T22:44:27.415Z,99.90
2018-07-13T22:47:08.699Z,99.90
2018-07-13T22:49:36.429Z,99.90
2018-07-13T22:52:17.058Z,99.90
2018-07-13T22:54:58.761Z,99.90
2018-07-13T22:57:39.392Z,99.90
2018-07-13T23:00:21.960Z,99.90
2018-07-13T23:03:02.571Z,99.90
2018-07-13T23:05:43.869Z,99.90
2018-07-13T23:08:24.568Z,99.90
2018-07-13T23:11:07.175Z,99.90
2018-07-13T23:13:48.782Z,99.90
2018-07-13T23:16:30.363Z,99.90
2018-07-13T23:18:58.234Z,99.90
2018-07-13T23:21:25.072Z,99.90
2018-07-13T23:23:51.994Z,99.90
2018-07-13T23:26:18.908Z,99.90
2018-07-13T23:28:45.834Z,99.90
2018-07-13T23:31:12.757Z,99.90
2018-07-13T23:33:39.621Z,99.90
2018-07-13T23:36:06.703Z,99.90
2018-07-13T23:38:33.572Z,99.90
2018-07-13T23:41:00.506Z,99.90
2018-07-13T23:43:27.451Z,99.90
2018-07-13T23:45:54.403Z,99.90
2018-07-13T23:48:22.501Z,99.90
2018-07-13T23:50:49.566Z,99.90
2018-07-13T23:53:16.461Z,99.90
2018-07-13T23:55:43.392Z,99.90
2018-07-13T23:58:10.270Z,99.90
